Time;durP1;ratioP1;P1;durP2;ratioP2;P2;SDS_P1;SDS_P2;PMS_P1;PMS_P2;Temp;Humidity;BMP_temperature;BMP_pressure;BME280_temperature;BME280_humidity;BME280_pressure;Samples;Min_cycle;Max_cycle;Signal;HPM_P1;HPM_P2
2022/07/21 00:01:48;;;;;;;18.70;11.60;;;;;;;19.84;91.93;101662.09;4895308;29;20032;-67
2022/07/21 00:04:15;;;;;;;20.08;12.68;;;;;;;19.79;92.51;101662.81;4895376;29;20477;-66
2022/07/21 00:06:41;;;;;;;19.05;12.20;;;;;;;19.73;92.50;101658.38;4895101;29;20373;-66
2022/07/21 00:09:07;;;;;;;18.17;10.18;;;;;;;19.72;91.67;101650.47;4894969;29;20052;-67
2022/07/21 00:11:32;;;;;;;16.95;10.55;;;;;;;19.72;91.73;101654.00;4878431;29;20037;-66
2022/07/21 00:13:58;;;;;;;16.75;9.55;;;;;;;19.67;91.81;101643.88;4895060;29;20036;-66
2022/07/21 00:16:23;;;;;;;18.00;10.40;;;;;;;19.68;92.62;101658.25;4895089;29;20028;-66
2022/07/21 00:18:49;;;;;;;15.57;9.13;;;;;;;19.65;92.89;101658.69;4894873;29;20028;-68
2022/07/21 00:21:14;;;;;;;18.92;10.07;;;;;;;19.62;92.37;101665.41;4894837;29;20059;-66
2022/07/21 00:23:40;;;;;;;17.17;10.63;;;;;;;19.62;91.37;101659.16;4894624;29;20126;-67
2022/07/21 00:26:05;;;;;;;15.27;9.60;;;;;;;19.59;91.83;101667.75;4894067;29;20409;-66
2022/07/21 00:28:30;;;;;;;16.50;10.10;;;;;;;19.55;91.15;101670.13;4894672;29;20040;-66
2022/07/21 00:30:56;;;;;;;14.23;9.55;;;;;;;19.44;91.22;101658.25;4894771;29;20058;-67
2022/07/21 00:33:21;;;;;;;14.10;8.32;;;;;;;19.48;90.86;101658.59;4894454;29;20060;-66
2022/07/21 00:35:46;;;;;;;13.63;7.88;;;;;;;19.45;91.66;101657.16;4894708;29;20055;-66
2022/07/21 00:38:12;;;;;;;15.57;9.23;;;;;;;19.45;90.47;101650.94;4894702;29;20092;-66
2022/07/21 00:40:37;;;;;;;14.00;7.85;;;;;;;19.44;91.32;101657.38;4894538;29;20029;-67
2022/07/21 00:43:03;;;;;;;13.57;8.40;;;;;;;19.40;91.50;101646.22;4894652;29;20044;-66
2022/07/21 00:45:28;;;;;;;16.20;8.18;;;;;;;19.40;91.24;101656.22;4894464;29;20035;-67
2022/07/21 00:47:54;;;;;;;13.35;7.55;;;;;;;19.37;91.17;101651.31;4894387;29;20037;-67
2022/07/21 00:50:20;;;;;;;14.25;8.68;;;;;;;19.33;91.37;101644.69;4894625;29;20489;-66
2022/07/21 00:52:47;;;;;;;14.15;7.32;;;;;;;19.32;91.10;101653.88;4894155;29;20032;-68
2022/07/21 00:55:15;;;;;;;14.20;8.07;;;;;;;19.26;92.07;101642.13;4894379;29;20042;-67
2022/07/21 00:57:41;;;;;;;12.13;7.93;;;;;;;19.25;92.04;101638.56;4894224;29;20036;-67
2022/07/21 01:00:09;;;;;;;15.93;8.20;;;;;;;19.24;92.26;101642.34;4894503;29;20033;-66
2022/07/21 01:02:37;;;;;;;19.73;9.18;;;;;;;19.23;92.75;101645.28;4894298;29;20041;-67
2022/07/21 01:05:12;;;;;;;15.05;8.98;;;;;;;19.17;92.13;101644.34;4894451;29;20507;-67
2022/07/21 01:07:39;;;;;;;15.27;8.57;;;;;;;19.13;92.10;101637.78;4878798;29;20036;-67
2022/07/21 01:10:05;;;;;;;13.00;8.15;;;;;;;19.12;92.39;101633.41;4877368;29;20147;-67
2022/07/21 01:12:30;;;;;;;16.17;8.75;;;;;;;19.12;93.24;101628.00;4894298;29;20143;-67
2022/07/21 01:14:56;;;;;;;16.33;8.82;;;;;;;19.13;92.45;101640.47;4894101;29;20036;-67
2022/07/21 01:17:22;;;;;;;16.17;9.40;;;;;;;19.11;92.49;101631.78;4894058;29;20462;-67
2022/07/21 01:19:47;;;;;;;17.80;8.98;;;;;;;19.06;92.65;101639.75;4894130;29;20445;-67
2022/07/21 01:22:13;;;;;;;16.50;8.98;;;;;;;19.02;92.38;101635.88;4894143;29;20047;-67
2022/07/21 01:24:38;;;;;;;16.20;8.95;;;;;;;18.99;92.49;101639.88;4893906;29;20051;-67
2022/07/21 01:27:04;;;;;;;15.82;9.75;;;;;;;18.97;93.20;101636.59;4893742;29;20119;-67
2022/07/21 01:29:29;;;;;;;15.10;9.57;;;;;;;18.98;92.52;101630.09;4877161;29;20061;-67
2022/07/21 01:31:54;;;;;;;17.55;9.93;;;;;;;18.96;93.03;101626.81;4877433;29;20052;-67
2022/07/21 01:34:20;;;;;;;17.80;10.25;;;;;;;18.92;92.85;101622.94;4893944;29;20986;-67
2022/07/21 01:36:46;;;;;;;16.75;9.65;;;;;;;18.95;92.78;101630.59;4894066;29;20058;-67
2022/07/21 01:41:55;;;;;;;17.05;9.50;;;;;;;18.98;92.64;101619.28;4897841;29;20051;-67
2022/07/21 01:44:21;;;;;;;17.33;10.55;;;;;;;18.97;92.35;101604.16;4897652;29;20356;-67
2022/07/21 01:46:50;;;;;;;15.25;9.18;;;;;;;18.96;92.94;101621.41;4897574;29;20060;-67
2022/07/21 01:49:18;;;;;;;17.77;10.10;;;;;;;18.94;93.21;101626.25;4897294;29;20046;-66
2022/07/21 01:51:43;;;;;;;17.63;11.07;;;;;;;18.92;93.16;101625.66;4897680;29;20123;-67
2022/07/21 01:54:10;;;;;;;19.67;8.93;;;;;;;18.90;93.42;101626.94;4897467;29;20228;-67
2022/07/21 01:56:36;;;;;;;19.23;11.65;;;;;;;18.83;93.80;101617.03;4897624;29;20392;-67
2022/07/21 01:59:03;;;;;;;17.50;10.18;;;;;;;18.85;94.35;101626.81;4897442;29;20592;-67
2022/07/21 02:01:30;;;;;;;17.77;11.20;;;;;;;18.84;94.01;101628.69;4897459;29;20044;-66
2022/07/21 02:04:01;;;;;;;18.38;10.30;;;;;;;18.83;94.49;101632.44;4897127;29;20500;-66
2022/07/21 02:06:27;;;;;;;17.60;10.32;;;;;;;18.83;94.43;101633.25;4897337;29;20032;-67
2022/07/21 02:08:53;;;;;;;18.45;11.65;;;;;;;18.85;94.42;101624.94;4897166;29;20484;-67
2022/07/21 02:11:19;;;;;;;17.83;10.40;;;;;;;18.82;94.72;101623.50;4897270;29;20032;-67
2022/07/21 02:13:45;;;;;;;17.58;10.45;;;;;;;18.85;94.36;101627.63;4897337;29;20033;-67
2022/07/21 02:16:12;;;;;;;18.15;11.07;;;;;;;18.82;94.63;101630.81;4897316;29;20095;-68
2022/07/21 02:18:38;;;;;;;19.30;10.98;;;;;;;18.82;94.82;101628.91;4897216;29;20067;-68
2022/07/21 02:21:04;;;;;;;19.60;11.20;;;;;;;18.80;94.96;101627.50;4897116;29;20127;-67
2022/07/21 02:23:31;;;;;;;16.65;9.90;;;;;;;18.78;94.76;101616.91;4896991;29;20462;-67
2022/07/21 02:25:56;;;;;;;17.95;10.88;;;;;;;18.77;95.12;101623.38;4896968;29;20036;-67
2022/07/21 02:28:23;;;;;;;19.30;11.45;;;;;;;18.75;95.20;101613.84;4896335;29;20060;-67
2022/07/21 02:30:49;;;;;;;17.00;10.27;;;;;;;18.77;95.69;101630.66;4896724;29;20477;-67
2022/07/21 02:33:15;;;;;;;17.35;10.68;;;;;;;18.75;95.05;101630.06;4896927;29;20036;-67
2022/07/21 02:35:41;;;;;;;18.85;9.85;;;;;;;18.76;95.33;101616.34;4896881;29;20064;-68
2022/07/21 02:38:06;;;;;;;19.15;11.45;;;;;;;18.77;94.98;101620.69;4896721;29;20064;-68
2022/07/21 02:40:33;;;;;;;18.92;11.57;;;;;;;18.76;95.36;101616.34;4896837;29;20437;-68
2022/07/21 02:42:58;;;;;;;18.23;11.05;;;;;;;18.76;95.69;101621.75;4896648;29;20088;-68
2022/07/21 02:45:24;;;;;;;17.73;11.10;;;;;;;18.77;95.54;101620.69;4896650;29;20028;-68
2022/07/21 02:47:49;;;;;;;18.05;10.85;;;;;;;18.75;95.06;101614.69;4896088;29;20503;-68
2022/07/21 02:50:16;;;;;;;20.58;10.85;;;;;;;18.74;94.84;101613.00;4896561;29;20119;-68
2022/07/21 02:52:41;;;;;;;17.58;10.73;;;;;;;18.72;94.43;101607.00;4896818;29;20032;-68
2022/07/21 02:55:07;;;;;;;17.15;9.10;;;;;;;18.71;95.00;101605.38;4896549;29;20036;-68
2022/07/21 02:57:33;;;;;;;20.88;10.50;;;;;;;18.67;95.31;101606.06;4896518;29;20097;-68
2022/07/21 02:59:58;;;;;;;18.60;10.75;;;;;;;18.66;94.99;101602.53;4896056;29;20052;-68
2022/07/21 03:02:23;;;;;;;23.38;11.05;;;;;;;18.66;95.50;101607.94;4879353;29;20400;-68
2022/07/21 03:04:49;;;;;;;18.30;12.10;;;;;;;18.65;95.41;101606.28;4879281;29;20079;-68
2022/07/21 03:07:14;;;;;;;18.77;10.30;;;;;;;18.64;95.49;101615.47;4896396;29;20036;-68
2022/07/21 03:09:39;;;;;;;16.77;10.50;;;;;;;18.65;95.62;101614.38;4896083;29;20059;-68
2022/07/21 03:12:05;;;;;;;18.80;10.48;;;;;;;18.67;95.94;101614.97;4896460;29;20036;-68
2022/07/21 03:14:30;;;;;;;18.85;10.48;;;;;;;18.68;95.34;101610.41;4895855;29;20044;-68
2022/07/21 03:16:57;;;;;;;18.77;11.35;;;;;;;18.66;95.58;101605.25;4896103;29;20525;-68
2022/07/21 03:19:22;;;;;;;19.63;12.10;;;;;;;18.70;95.57;101609.09;4896127;29;20063;-68
2022/07/21 03:21:48;;;;;;;21.40;12.32;;;;;;;18.70;95.40;101608.28;4896099;29;20135;-68
2022/07/21 03:24:13;;;;;;;18.10;11.43;;;;;;;18.72;96.00;101606.19;4895904;29;20056;-68
2022/07/21 03:26:38;;;;;;;20.05;10.27;;;;;;;18.72;95.65;101611.59;4896055;29;20127;-68
2022/07/21 03:29:04;;;;;;;19.77;12.13;;;;;;;18.70;95.71;101603.72;4895735;29;20586;-68
2022/07/21 03:31:29;;;;;;;18.27;11.23;;;;;;;18.71;96.31;101599.97;4895305;29;20059;-68
2022/07/21 03:33:54;;;;;;;20.38;11.88;;;;;;;18.69;95.84;101602.06;4878923;29;20039;-68
2022/07/21 03:36:22;;;;;;;19.88;13.07;;;;;;;18.73;95.49;101605.13;4895794;29;20116;-68
2022/07/21 03:38:49;;;;;;;20.83;12.63;;;;;;;18.72;95.51;101607.00;4895784;29;20089;-68
2022/07/21 03:41:15;;;;;;;18.92;11.50;;;;;;;18.73;95.40;101605.13;4895694;29;20030;-68
2022/07/21 03:43:40;;;;;;;22.20;12.65;;;;;;;18.73;95.84;101611.38;4895542;29;20033;-68
2022/07/21 03:46:05;;;;;;;21.42;12.25;;;;;;;18.73;96.11;101619.47;4895777;29;20025;-67
2022/07/21 03:48:31;;;;;;;21.55;12.40;;;;;;;18.75;96.05;101621.97;4895448;29;20544;-68
2022/07/21 03:50:56;;;;;;;21.27;12.85;;;;;;;18.73;95.71;101624.88;4895464;29;20032;-68
2022/07/21 03:53:22;;;;;;;21.95;12.30;;;;;;;18.74;96.01;101629.22;4895402;29;20044;-68
2022/07/21 03:55:47;;;;;;;22.13;13.02;;;;;;;18.68;96.15;101627.47;4895508;29;20059;-68
2022/07/21 03:58:13;;;;;;;22.83;12.93;;;;;;;18.68;95.96;101623.91;4878158;29;20477;-68
2022/07/21 04:00:41;;;;;;;23.80;14.98;;;;;;;18.67;95.55;101617.69;4894426;29;20401;-68
2022/07/21 04:03:07;;;;;;;21.17;12.90;;;;;;;18.75;95.63;101611.97;4895247;29;20455;-68
2022/07/21 04:05:33;;;;;;;21.67;14.32;;;;;;;18.75;95.39;101617.38;4895042;29;20037;-67
2022/07/21 04:07:59;;;;;;;20.65;13.10;;;;;;;18.76;95.40;101615.53;4895065;29;20405;-68
2022/07/21 04:10:28;;;;;;;22.48;13.80;;;;;;;18.78;95.69;101616.09;4895129;29;20473;-68
2022/07/21 04:12:55;;;;;;;26.02;13.75;;;;;;;18.79;95.61;101612.34;4894963;29;20442;-68
2022/07/21 04:15:20;;;;;;;23.13;14.30;;;;;;;18.77;95.93;101625.28;4895180;29;20028;-68
2022/07/21 04:17:46;;;;;;;24.77;13.02;;;;;;;18.76;95.88;101620.94;4894843;29;20055;-68
2022/07/21 04:20:13;;;;;;;21.73;12.07;;;;;;;18.75;95.61;101611.97;4895024;29;20119;-68
2022/07/21 04:22:40;;;;;;;21.92;13.93;;;;;;;18.76;95.94;101618.22;4894559;29;20028;-67
2022/07/21 04:25:07;;;;;;;20.67;12.43;;;;;;;18.71;95.83;101612.66;4895214;29;20142;-68
2022/07/21 04:27:33;;;;;;;24.75;13.98;;;;;;;18.72;96.60;101617.81;4894836;29;20480;-68
2022/07/21 04:29:59;;;;;;;23.13;13.30;;;;;;;18.68;96.38;101618.50;4894753;29;20045;-68
2022/07/21 04:32:24;;;;;;;24.02;12.05;;;;;;;18.65;96.60;101618.97;4894151;29;20033;-68
2022/07/21 04:34:49;;;;;;;21.05;12.02;;;;;;;18.65;97.06;101618.97;4894539;29;20115;-68
2022/07/21 04:37:15;;;;;;;23.20;14.23;;;;;;;18.65;96.47;101613.56;4894655;29;20048;-68
2022/07/21 04:39:40;;;;;;;20.42;12.75;;;;;;;18.64;96.71;101615.47;4894515;29;20040;-68
2022/07/21 04:42:06;;;;;;;22.70;12.70;;;;;;;18.62;96.78;101620.25;4894655;29;20469;-68
2022/07/21 04:44:31;;;;;;;19.75;12.18;;;;;;;18.64;96.41;101622.75;4894472;29;20025;-68
2022/07/21 04:46:57;;;;;;;20.33;13.60;;;;;;;18.66;96.88;101618.75;4894540;29;20028;-68
2022/07/21 04:49:23;;;;;;;24.38;13.80;;;;;;;18.66;97.18;101613.34;4894449;29;20039;-67
2022/07/21 04:51:48;;;;;;;23.98;12.23;;;;;;;18.60;97.22;101611.56;4894394;29;20519;-67
2022/07/21 04:54:14;;;;;;;21.15;12.98;;;;;;;18.52;97.58;101601.09;4894412;29;20047;-67
2022/07/21 04:56:43;;;;;;;23.85;11.88;;;;;;;18.55;97.54;101614.16;4894419;29;20029;-67
2022/07/21 04:59:09;;;;;;;21.27;12.07;;;;;;;18.57;98.06;101617.44;4894190;29;20156;-67
2022/07/21 05:01:35;;;;;;;19.88;11.27;;;;;;;18.55;97.47;101612.28;4894285;29;20131;-67
2022/07/21 05:04:00;;;;;;;19.50;11.43;;;;;;;18.60;98.72;101619.66;4894357;29;20040;-68
2022/07/21 05:06:26;;;;;;;23.83;12.20;;;;;;;18.60;98.29;101617.81;4877826;29;20133;-68
2022/07/21 05:08:51;;;;;;;20.90;10.70;;;;;;;18.59;97.16;101621.53;4893944;29;20104;-67
2022/07/21 05:11:17;;;;;;;18.27;10.55;;;;;;;18.59;97.02;101631.53;4893990;29;20045;-67
2022/07/21 05:13:42;;;;;;;21.15;11.63;;;;;;;18.55;97.57;101617.69;4894124;29;20032;-67
2022/07/21 05:16:07;;;;;;;23.60;12.40;;;;;;;18.56;97.20;101624.72;4894321;29;20032;-67
2022/07/21 05:18:33;;;;;;;18.80;11.55;;;;;;;18.53;97.13;101621.66;4894082;29;20408;-67
2022/07/21 05:20:58;;;;;;;20.08;11.05;;;;;;;18.52;97.17;101628.94;4894120;29;20055;-67
2022/07/21 05:23:24;;;;;;;20.38;11.15;;;;;;;18.48;97.57;101616.94;4893955;29;20033;-67
2022/07/21 05:25:49;;;;;;;21.98;11.38;;;;;;;18.55;97.73;101628.47;4894133;29;20430;-67
2022/07/21 05:28:14;;;;;;;18.17;9.32;;;;;;;18.55;96.95;101631.19;4893947;29;20044;-67
2022/07/21 05:30:40;;;;;;;19.40;10.73;;;;;;;18.57;97.42;101623.66;4877456;29;20036;-67
2022/07/21 05:33:05;;;;;;;21.25;10.10;;;;;;;18.59;97.50;101626.94;4893981;29;20044;-68
2022/07/21 05:35:30;;;;;;;18.90;10.23;;;;;;;18.54;97.29;101624.13;4893728;29;20036;-67
2022/07/21 05:37:56;;;;;;;20.05;9.77;;;;;;;18.55;97.25;101620.38;4893914;29;20028;-67
2022/07/21 05:40:21;;;;;;;21.02;11.25;;;;;;;18.61;97.58;101622.16;4893918;29;20124;-68
2022/07/21 05:42:47;;;;;;;19.58;11.20;;;;;;;18.66;96.98;101612.53;4893969;29;20064;-68
2022/07/21 05:45:13;;;;;;;23.40;11.27;;;;;;;18.60;97.03;101593.50;4893766;29;20051;-67
2022/07/21 05:47:38;;;;;;;20.70;12.27;;;;;;;18.65;96.75;101600.88;4893953;29;20040;-68
2022/07/21 05:50:05;;;;;;;21.45;10.57;;;;;;;18.67;96.94;101609.59;4893729;29;20041;-68
2022/07/21 05:52:30;;;;;;;19.63;9.73;;;;;;;18.70;97.17;101613.69;4893822;29;20508;-67
2022/07/21 05:54:56;;;;;;;18.65;11.13;;;;;;;18.72;97.17;101612.41;4893793;29;20040;-67
2022/07/21 05:57:21;;;;;;;18.50;10.07;;;;;;;18.73;97.22;101603.28;4893739;29;20503;-68
2022/07/21 05:59:47;;;;;;;18.33;9.70;;;;;;;18.75;96.17;101606.56;4893664;29;20067;-68
2022/07/21 06:02:12;;;;;;;17.05;10.30;;;;;;;18.69;96.35;101601.25;4893796;29;20037;-69
2022/07/21 06:04:38;;;;;;;16.48;9.98;;;;;;;18.68;96.26;101608.53;4893741;29;20036;-68
2022/07/21 06:07:03;;;;;;;17.23;10.07;;;;;;;18.69;96.75;101609.38;4893617;29;20037;-68
2022/07/21 06:09:28;;;;;;;21.17;11.57;;;;;;;18.68;96.06;101611.25;4893536;29;20056;-68
2022/07/21 06:11:54;;;;;;;16.10;9.15;;;;;;;18.67;96.44;101614.97;4893619;29;20061;-68
2022/07/21 06:14:20;;;;;;;20.30;9.80;;;;;;;18.66;96.30;101618.75;4893524;29;20404;-68
2022/07/21 06:16:45;;;;;;;16.85;9.38;;;;;;;18.68;95.99;101610.41;4893660;29;20115;-68
2022/07/21 06:19:10;;;;;;;20.25;10.70;;;;;;;18.68;97.00;101610.41;4893555;29;20053;-68
2022/07/21 06:21:36;;;;;;;19.75;10.15;;;;;;;18.68;96.91;101622.06;4893577;29;20579;-68
2022/07/21 06:24:01;;;;;;;21.42;11.15;;;;;;;18.71;96.49;101610.78;4895380;29;20416;-69
2022/07/21 06:26:27;;;;;;;20.20;10.18;;;;;;;18.74;96.43;101607.59;4897060;29;20059;-69
2022/07/21 06:28:53;;;;;;;18.00;10.90;;;;;;;18.79;95.84;101607.75;4896934;29;20055;-69
2022/07/21 06:31:18;;;;;;;25.00;12.38;;;;;;;18.81;95.89;101611.06;4896895;29;20051;-69
2022/07/21 06:33:43;;;;;;;22.02;12.43;;;;;;;18.76;94.61;101602.00;4896733;29;20036;-68
2022/07/21 06:36:09;;;;;;;23.88;13.57;;;;;;;18.85;94.93;101611.41;4896471;29;20035;-67
2022/07/21 06:38:35;;;;;;;29.45;13.00;;;;;;;18.89;95.23;101623.41;4896479;29;20432;-68
2022/07/21 06:41:00;;;;;;;25.75;14.77;;;;;;;18.89;93.55;101622.56;4896853;29;20080;-68
2022/07/21 06:43:26;;;;;;;26.90;14.82;;;;;;;18.92;94.81;101622.13;4880184;29;20040;-68
2022/07/21 06:45:51;;;;;;;27.27;13.13;;;;;;;18.95;94.47;101627.06;4896670;29;20043;-68
2022/07/21 06:48:17;;;;;;;28.08;14.55;;;;;;;19.02;93.78;101620.50;4879867;29;20063;-68
2022/07/21 06:50:42;;;;;;;30.60;16.35;;;;;;;19.10;92.88;101627.44;4896392;29;20079;-68
2022/07/21 06:53:09;;;;;;;27.25;15.95;;;;;;;19.19;92.59;101622.50;4896666;29;20123;-68
2022/07/21 06:55:34;;;;;;;29.23;14.48;;;;;;;19.30;92.75;101618.94;4896485;29;20429;-69
2022/07/21 06:58:15;;;;;;;26.02;14.82;;;;;;;19.42;92.40;101622.47;4896307;29;20044;-69
2022/07/21 07:00:41;;;;;;;30.53;15.57;;;;;;;19.59;91.99;101627.97;4896598;29;20040;-72
2022/07/21 07:03:07;;;;;;;28.17;15.70;;;;;;;19.84;90.80;101632.31;4879532;29;20520;-73
2022/07/21 07:05:33;;;;;;;25.02;15.70;;;;;;;20.06;90.77;101635.19;4896221;29;20037;-77
2022/07/21 07:07:58;;;;;;;25.95;14.13;;;;;;;20.12;89.42;101628.81;4896072;29;20135;-76
2022/07/21 07:10:23;;;;;;;27.20;15.68;;;;;;;20.10;88.88;101618.22;4896244;29;20063;-75
2022/07/21 07:12:49;;;;;;;28.10;15.88;;;;;;;20.13;87.58;101627.75;4896247;29;20040;-75
2022/07/21 07:15:14;;;;;;;24.25;13.98;;;;;;;20.09;87.58;101630.09;4895995;29;20084;-75
2022/07/21 07:17:39;;;;;;;27.33;15.73;;;;;;;20.05;88.08;101625.44;4879408;29;20044;-75
2022/07/21 07:20:07;;;;;;;24.50;14.75;;;;;;;20.08;88.76;101630.38;4896230;29;20028;-75
2022/07/21 07:22:32;;;;;;;33.50;15.95;;;;;;;20.11;88.11;101629.88;4896119;29;20520;-75
2022/07/21 07:24:58;;;;;;;24.92;15.95;;;;;;;20.10;88.05;101630.94;4895889;29;20075;-77
2022/07/21 07:27:24;;;;;;;22.10;12.98;;;;;;;20.11;89.23;101619.84;4896135;29;20029;-75
2022/07/21 07:29:49;;;;;;;22.35;14.63;;;;;;;20.11;87.10;101625.28;4895909;29;20036;-76
2022/07/21 07:32:14;;;;;;;22.88;13.25;;;;;;;20.07;87.05;101632.25;4895902;29;20397;-77
2022/07/21 07:34:40;;;;;;;24.95;13.70;;;;;;;19.98;87.27;101630.97;4894334;29;20036;-76
2022/07/21 07:37:05;;;;;;;25.23;14.63;;;;;;;19.96;88.57;101633.09;4895568;29;20040;-77
2022/07/21 07:39:30;;;;;;;23.10;12.77;;;;;;;19.93;88.75;101634.41;4895447;29;20020;-77
2022/07/21 07:41:56;;;;;;;26.15;16.83;;;;;;;19.86;88.38;101632.91;4895449;29;20080;-75
2022/07/21 07:44:22;;;;;;;24.60;14.32;;;;;;;19.87;89.13;101629.13;4895674;29;20060;-76
2022/07/21 07:46:48;;;;;;;23.90;15.02;;;;;;;19.88;89.70;101637.00;4895360;29;20467;-77
2022/07/21 07:49:14;;;;;;;24.73;15.02;;;;;;;19.90;88.02;101632.19;4895433;29;20028;-76
2022/07/21 07:51:40;;;;;;;24.88;13.93;;;;;;;19.89;88.22;101633.25;4895573;29;20044;-76
2022/07/21 07:54:05;;;;;;;22.63;13.23;;;;;;;20.01;88.42;101624.25;4895449;29;20064;-76
2022/07/21 07:56:31;;;;;;;23.35;13.57;;;;;;;20.14;88.11;101634.81;4895308;29;20362;-76
2022/07/21 07:58:57;;;;;;;24.98;13.43;;;;;;;20.31;86.85;101624.84;4895697;29;20493;-76
2022/07/21 08:01:22;;;;;;;21.58;12.00;;;;;;;20.43;87.00;101638.31;4895408;29;20081;-75
2022/07/21 08:03:48;;;;;;;21.42;13.40;;;;;;;20.39;87.45;101636.38;4895203;29;20444;-75
2022/07/21 08:06:13;;;;;;;26.35;15.20;;;;;;;20.48;88.62;101643.03;4878516;29;20068;-76
2022/07/21 08:08:39;;;;;;;22.48;13.55;;;;;;;20.43;87.21;101643.75;4895003;29;20162;-75
2022/07/21 08:11:05;;;;;;;19.05;10.80;;;;;;;20.27;86.62;101639.94;4895234;29;20056;-75
2022/07/21 08:13:31;;;;;;;20.92;12.57;;;;;;;20.12;87.48;101645.06;4894964;29;20040;-75
2022/07/21 08:15:57;;;;;;;20.05;10.52;;;;;;;19.95;88.22;101639.59;4894595;29;20048;-75
2022/07/21 08:18:22;;;;;;;14.18;8.48;;;;;;;19.82;88.65;101643.38;4894978;29;20473;-75
2022/07/21 08:20:48;;;;;;;13.00;6.93;;;;;;;19.74;89.20;101645.66;4878045;29;20032;-74
2022/07/21 08:23:14;;;;;;;11.35;5.90;;;;;;;19.64;89.72;101662.44;4894796;29;20127;-71
2022/07/21 08:25:40;;;;;;;14.32;7.72;;;;;;;19.47;91.76;101651.53;4895026;29;20396;-71
2022/07/21 08:28:06;;;;;;;11.63;5.97;;;;;;;19.39;93.19;101660.81;4894712;29;20036;-70
2022/07/21 08:30:31;;;;;;;11.70;5.53;;;;;;;19.21;94.47;101661.75;4894909;29;20452;-70
2022/07/21 08:33:01;;;;;;;11.23;6.18;;;;;;;19.04;95.95;101653.50;4894970;29;20032;-68
2022/07/21 08:35:26;;;;;;;10.43;6.25;;;;;;;18.99;97.43;101666.06;4878098;29;20036;-69
2022/07/21 08:37:58;;;;;;;13.32;6.95;;;;;;;18.89;97.98;101660.41;4894822;29;20044;-68
2022/07/21 08:40:26;;;;;;;13.25;6.50;;;;;;;18.82;98.48;101666.75;4894326;29;20026;-68
2022/07/21 08:42:54;;;;;;;10.85;6.00;;;;;;;18.75;99.82;101654.41;4894793;29;20119;-68
2022/07/21 08:45:21;;;;;;;12.88;6.50;;;;;;;18.64;100.00;101661.38;4894482;29;20504;-68
2022/07/21 08:47:53;;;;;;;10.85;5.55;;;;;;;18.60;100.00;101668.28;4894363;29;20112;-68
2022/07/21 08:50:19;;;;;;;12.82;6.82;;;;;;;18.50;100.00;101658.06;4894510;29;20024;-68
2022/07/21 08:52:44;;;;;;;11.55;6.10;;;;;;;18.51;100.00;101667.00;4894410;29;20050;-68
2022/07/21 08:55:10;;;;;;;14.32;7.15;;;;;;;18.48;100.00;101664.75;4894607;29;20036;-69
2022/07/21 08:57:39;;;;;;;10.98;5.40;;;;;;;18.43;100.00;101651.94;4894204;29;20028;-68
2022/07/21 09:00:06;;;;;;;11.35;5.00;;;;;;;18.43;100.00;101656.50;4894347;29;20095;-68
2022/07/21 09:02:34;;;;;;;12.07;5.88;;;;;;;18.44;100.00;101656.25;4894355;29;20036;-68
2022/07/21 09:05:01;;;;;;;9.55;4.95;;;;;;;18.46;100.00;101656.03;4894306;29;20043;-69
2022/07/21 09:07:26;;;;;;;10.02;5.95;;;;;;;18.43;100.00;101645.69;4894211;29;20500;-68
2022/07/21 09:10:03;;;;;;;7.85;4.72;;;;;;;18.48;100.00;101656.66;4893894;29;20056;-69
2022/07/21 09:12:29;;;;;;;10.60;5.57;;;;;;;18.49;100.00;101653.69;4894382;29;20072;-69
2022/07/21 09:15:15;;;;;;;8.38;4.95;;;;;;;18.49;100.00;101648.28;4893834;29;20028;-69
2022/07/21 09:17:40;;;;;;;17.85;5.30;;;;;;;18.54;100.00;101653.84;4894132;29;20323;-69
2022/07/21 09:20:24;;;;;;;7.00;4.20;;;;;;;18.54;100.00;101653.00;4894125;29;20107;-69
2022/07/21 09:23:11;;;;;;;7.20;4.75;;;;;;;18.56;100.00;101645.50;4894175;29;20036;-69
2022/07/21 09:25:58;;;;;;;8.73;4.45;;;;;;;18.63;100.00;101657.06;4894202;29;20426;-68
2022/07/21 09:28:27;;;;;;;10.07;5.35;;;;;;;18.61;100.00;101664.56;4893839;29;20080;-69
2022/07/21 09:30:54;;;;;;;7.88;4.82;;;;;;;18.58;100.00;101663.13;4894132;29;20056;-68
2022/07/21 09:33:24;;;;;;;7.57;5.15;;;;;;;18.58;100.00;101665.03;4877262;29;20446;-69
2022/07/21 09:35:57;;;;;;;7.78;4.57;;;;;;;18.59;100.00;101666.66;4893876;29;20745;-69
2022/07/21 09:38:23;;;;;;;9.20;5.38;;;;;;;18.61;100.00;101670.78;4893886;29;20033;-69
2022/07/21 09:40:49;;;;;;;10.82;5.57;;;;;;;18.66;100.00;101678.19;4893867;29;20044;-69
2022/07/21 09:43:32;;;;;;;10.13;6.05;;;;;;;18.69;100.00;101677.75;4893635;29;20028;-69
2022/07/21 09:46:05;;;;;;;12.60;7.00;;;;;;;18.71;100.00;101681.03;4893895;29;20127;-69
2022/07/21 09:48:35;;;;;;;10.20;5.53;;;;;;;18.76;100.00;101673.09;4893858;29;20665;-70
2022/07/21 09:51:35;;;;;;;9.55;5.70;;;;;;;18.78;100.00;101683.66;4893774;29;20124;-69
2022/07/21 09:54:12;;;;;;;11.25;6.75;;;;;;;18.75;100.00;101682.25;4893589;29;20059;-69
2022/07/21 09:56:41;;;;;;;9.88;6.38;;;;;;;18.70;100.00;101683.97;4893877;29;20037;-69
2022/07/21 09:59:09;;;;;;;9.45;5.65;;;;;;;18.65;100.00;101683.81;4895828;29;20069;-69
2022/07/21 10:01:38;;;;;;;11.27;6.28;;;;;;;18.61;100.00;101686.16;4897445;29;20392;-69
2022/07/21 10:04:04;;;;;;;11.85;6.05;;;;;;;18.58;100.00;101684.75;4897410;29;20040;-69
2022/07/21 10:06:32;;;;;;;10.30;5.30;;;;;;;18.61;100.00;101692.41;4897244;29;20045;-70
2022/07/21 10:09:00;;;;;;;8.60;4.70;;;;;;;18.59;100.00;101693.69;4897275;29;20040;-69
2022/07/21 10:11:26;;;;;;;8.38;5.25;;;;;;;18.56;100.00;101688.75;4897413;29;20036;-70
2022/07/21 10:13:52;;;;;;;8.30;5.20;;;;;;;18.54;100.00;101697.06;4897286;29;20040;-69
2022/07/21 10:16:18;;;;;;;10.98;6.00;;;;;;;18.46;100.00;101699.25;4897121;29;20376;-69
2022/07/21 10:19:10;;;;;;;8.18;5.78;;;;;;;18.48;100.00;101700.69;4897095;29;20029;-70
2022/07/21 10:21:45;;;;;;;9.15;5.57;;;;;;;18.50;100.00;101706.69;4897152;29;20438;-70
2022/07/21 10:24:12;;;;;;;7.95;5.43;;;;;;;18.51;100.00;101713.72;4896888;29;20028;-69
2022/07/21 10:26:58;;;;;;;9.13;5.30;;;;;;;18.52;100.00;101703.75;4896969;29;20036;-69
2022/07/21 10:29:58;;;;;;;9.77;6.53;;;;;;;18.49;100.00;101712.31;4896767;29;20047;-69
2022/07/21 10:32:35;;;;;;;6.50;5.32;;;;;;;18.44;100.00;101720.28;4896599;29;20123;-70
2022/07/21 10:35:30;;;;;;;8.82;5.28;;;;;;;18.40;100.00;101722.63;4897151;29;20028;-70
2022/07/21 10:37:57;;;;;;;8.32;5.15;;;;;;;18.35;100.00;101717.88;4896866;29;20144;-70
2022/07/21 10:40:22;;;;;;;7.15;4.78;;;;;;;18.35;100.00;101726.00;4896835;29;20511;-69
2022/07/21 10:43:08;;;;;;;8.80;4.43;;;;;;;18.34;100.00;101727.06;4896546;29;20029;-69
2022/07/21 10:45:38;;;;;;;6.47;4.38;;;;;;;18.31;100.00;101724.81;4866941;29;20280;-68
2022/07/21 10:48:06;;;;;;;7.65;4.95;;;;;;;18.36;100.00;101724.94;4896578;29;20040;-69
2022/07/21 10:50:38;;;;;;;7.65;5.00;;;;;;;18.35;100.00;101728.69;4896616;29;20155;-68
2022/07/21 10:53:14;;;;;;;7.72;4.60;;;;;;;18.31;100.00;101727.50;4896546;29;20028;-69
2022/07/21 10:55:47;;;;;;;7.95;4.65;;;;;;;18.29;100.00;101731.50;4896372;29;20025;-66
2022/07/21 10:58:25;;;;;;;7.65;5.70;;;;;;;18.28;100.00;101741.44;4896474;29;20040;-66
2022/07/21 11:01:02;;;;;;;8.90;5.85;;;;;;;18.23;100.00;101725.09;4896622;29;20147;-69
2022/07/21 11:03:33;;;;;;;9.10;6.20;;;;;;;18.19;100.00;101723.91;4896379;29;20032;-68
2022/07/21 11:06:24;;;;;;;7.47;5.43;;;;;;;18.28;100.00;101733.34;4896341;29;20036;-68
2022/07/21 11:09:04;;;;;;;9.63;5.60;;;;;;;18.29;100.00;101731.50;4896031;29;20051;-68
2022/07/21 11:11:35;;;;;;;10.10;5.70;;;;;;;18.29;100.00;101732.31;4895805;29;20096;-68
2022/07/21 11:14:02;;;;;;;14.30;6.32;;;;;;;18.36;100.00;101738.44;4896289;29;20068;-68
2022/07/21 11:16:40;;;;;;;7.60;5.63;;;;;;;18.33;100.00;101732.66;4895925;29;20029;-68